Marion, Iowa
Current Conditions -  °F | °C
As of 6:09 PM on Monday 22 Dec 2014 (Local Time) from KCID Reporting Station
Moderate Fog Moderate Fog  
Wind Chill: 28°   Ceiling: 200
Heat Index: 36°   Visibility: 0.25mi
Dew Point: 36°   Wind: 12mph
Humidity: 100%   Direction: 100°E
Pressure: 29.52"   Gusts: NA
Location:  42.03°N, 91.6°W
Report Text: KCID 230009Z 10010KT 1/4SM FG VV002 02/02 A2952 RMK AO2 T00220022
Loading
Personal Weather Stations






























Interactive Weather Map New forecast layout! Learn more

10-Day Weather Forecast

Advertisements
Track Severe Weather on mobile